Time;durP1;ratioP1;P1;durP2;ratioP2;P2;SDS_P1;SDS_P2;PMS_P1;PMS_P2;Temp;Humidity;BMP_temperature;BMP_pressure;BME280_temperature;BME280_humidity;BME280_pressure;Samples;Min_cycle;Max_cycle;Signal;HPM_P1;HPM_P2
2021/03/27 00:00:43;;;;;;;12.98;8.32;;;10.80;85.60;;;;;;5092164;28;20035;-44
2021/03/27 00:03:21;;;;;;;13.20;9.40;;;10.80;85.90;;;;;;5092077;28;20082;-44
2021/03/27 00:06:00;;;;;;;15.05;9.43;;;10.70;86.50;;;;;;5092543;28;20089;-44
2021/03/27 00:08:41;;;;;;;15.88;8.35;;;10.70;87.20;;;;;;5092467;28;20028;-45
2021/03/27 00:11:16;;;;;;;12.80;8.57;;;10.60;88.20;;;;;;5074239;28;20039;-45
2021/03/27 00:13:59;;;;;;;16.35;9.40;;;10.60;88.70;;;;;;5074178;28;20435;-45
2021/03/27 00:16:27;;;;;;;14.57;9.27;;;10.50;89.50;;;;;;5091597;28;20028;-45
2021/03/27 00:19:25;;;;;;;13.98;9.55;;;10.50;89.90;;;;;;5092332;28;20024;-44
2021/03/27 00:21:55;;;;;;;14.30;9.48;;;10.50;90.40;;;;;;5092162;28;20048;-46
2021/03/27 00:24:50;;;;;;;17.90;10.93;;;10.40;90.70;;;;;;5091806;28;20073;-44
2021/03/27 00:27:21;;;;;;;15.00;9.15;;;10.40;91.20;;;;;;5091796;28;20466;-44
2021/03/27 00:29:50;;;;;;;;;;;10.30;91.50;;;;;;5091776;28;20081;-45
2021/03/27 00:32:23;;;;;;;18.38;9.57;;;10.30;92.10;;;;;;5091649;28;19911;-44
2021/03/27 00:34:55;;;;;;;15.77;9.13;;;10.30;92.30;;;;;;5091415;28;20271;-44
2021/03/27 00:37:25;;;;;;;16.58;10.02;;;10.30;92.70;;;;;;5091777;28;20470;-44
2021/03/27 00:39:58;;;;;;;14.63;9.60;;;10.20;93.10;;;;;;5091466;28;20043;-45
2021/03/27 00:42:31;;;;;;;13.35;8.98;;;10.20;93.30;;;;;;5091445;28;20413;-44
2021/03/27 00:45:10;;;;;;;17.80;10.18;;;10.10;93.60;;;;;;5090827;28;20397;-44
2021/03/27 00:47:38;;;;;;;17.77;9.90;;;10.10;94.00;;;;;;5091544;28;20051;-44
2021/03/27 00:50:13;;;;;;;18.95;9.27;;;10.10;94.50;;;;;;5091510;28;20028;-44
2021/03/27 00:52:45;;;;;;;13.68;9.05;;;10.00;94.80;;;;;;5090590;28;20032;-43
2021/03/27 00:55:33;;;;;;;15.15;8.43;;;9.90;95.30;;;;;;5090941;28;20028;-44
2021/03/27 00:58:08;;;;;;;12.88;8.95;;;9.90;95.80;;;;;;5091940;28;20319;-44
2021/03/27 01:00:36;;;;;;;16.15;9.57;;;9.90;96.30;;;;;;5091066;28;20024;-45
2021/03/27 01:03:09;;;;;;;15.40;9.70;;;9.90;96.60;;;;;;5091471;28;20020;-44
2021/03/27 01:05:36;;;;;;;17.17;10.65;;;9.90;96.90;;;;;;5072097;28;20131;-44
2021/03/27 01:08:05;;;;;;;19.40;10.88;;;9.90;96.80;;;;;;5090903;28;20129;-44
2021/03/27 01:10:42;;;;;;;15.23;9.80;;;9.90;96.70;;;;;;5091084;28;20020;-44
2021/03/27 01:13:13;;;;;;;14.30;9.40;;;10.00;95.80;;;;;;5090966;28;20614;-44
2021/03/27 01:15:45;;;;;;;14.68;10.35;;;10.10;95.60;;;;;;5090138;28;20024;-43
2021/03/27 01:18:27;;;;;;;14.40;9.75;;;10.10;95.60;;;;;;5072918;28;20504;-44
2021/03/27 01:20:56;;;;;;;18.33;10.52;;;10.10;95.70;;;;;;5091038;28;20023;-43
2021/03/27 01:23:21;;;;;;;16.83;9.65;;;10.10;95.50;;;;;;5090929;28;20143;-44
2021/03/27 01:25:48;;;;;;;15.55;9.35;;;10.20;95.50;;;;;;5068077;28;20036;-44
2021/03/27 01:28:25;;;;;;;13.27;8.10;;;10.20;94.80;;;;;;5052422;28;20520;-44
2021/03/27 01:31:05;;;;;;;13.93;8.82;;;10.30;94.70;;;;;;5070172;28;20391;-44
2021/03/27 01:33:56;;;;;;;17.15;9.27;;;10.40;94.30;;;;;;5070595;28;20031;-45
2021/03/27 01:36:30;;;;;;;12.55;8.48;;;10.40;93.90;;;;;;5068608;28;20054;-44
2021/03/27 01:39:02;;;;;;;16.13;8.73;;;10.50;93.80;;;;;;5070204;28;20048;-45
2021/03/27 01:41:35;;;;;;;16.70;8.80;;;10.50;93.60;;;;;;5070232;28;20078;-45
2021/03/27 01:44:20;;;;;;;12.65;8.57;;;10.60;93.20;;;;;;5069955;28;20025;-44
2021/03/27 01:47:07;;;;;;;15.13;8.65;;;10.60;93.10;;;;;;5069388;28;20162;-44
2021/03/27 01:49:48;;;;;;;13.40;8.90;;;10.80;92.60;;;;;;5070296;28;20100;-44
2021/03/27 01:52:36;;;;;;;17.48;8.73;;;10.80;92.30;;;;;;5070301;28;20461;-43
2021/03/27 01:55:26;;;;;;;13.00;9.13;;;10.90;92.10;;;;;;5071570;28;20024;-44
2021/03/27 01:58:13;;;;;;;18.13;8.90;;;11.00;92.00;;;;;;5090537;28;20370;-44
2021/03/27 02:00:51;;;;;;;17.02;8.55;;;11.10;91.60;;;;;;5090072;28;20042;-44
2021/03/27 02:03:31;;;;;;;12.43;7.70;;;11.10;91.50;;;;;;5089924;28;20568;-44
2021/03/27 02:06:29;;;;;;;15.07;7.72;;;11.10;91.10;;;;;;5088874;28;20165;-44
2021/03/27 02:09:09;;;;;;;14.23;7.90;;;11.10;91.20;;;;;;5070049;28;20028;-44
2021/03/27 02:11:50;;;;;;;10.90;7.57;;;11.10;91.10;;;;;;5090266;28;20242;-44
2021/03/27 02:14:20;;;;;;;;;;;11.20;90.70;;;;;;5088554;28;20034;-46
2021/03/27 02:17:03;;;;;;;12.73;7.80;;;11.20;90.60;;;;;;5089107;28;19904;-44
2021/03/27 02:20:06;;;;;;;13.15;8.38;;;11.10;90.50;;;;;;5071477;28;20497;-45
2021/03/27 02:22:41;;;;;;;10.95;8.07;;;11.10;90.50;;;;;;5089687;28;20055;-44
2021/03/27 02:25:20;;;;;;;15.50;7.80;;;11.20;90.50;;;;;;5088865;28;20028;-45
2021/03/27 02:28:11;;;;;;;12.90;8.33;;;11.10;90.50;;;;;;5089594;28;20116;-44
2021/03/27 02:30:45;;;;;;;13.63;7.70;;;11.10;90.60;;;;;;5070634;28;20034;-47
2021/03/27 02:33:20;;;;;;;12.73;7.80;;;11.10;90.60;;;;;;5089434;28;20413;-45
2021/03/27 02:36:12;;;;;;;11.52;7.28;;;11.10;90.80;;;;;;5087272;28;20032;-45
2021/03/27 02:38:52;;;;;;;12.60;7.65;;;11.00;90.70;;;;;;5088895;28;20558;-44
2021/03/27 02:41:18;;;;;;;11.35;7.82;;;11.00;90.70;;;;;;5089287;28;20035;-44
2021/03/27 02:43:53;;;;;;;10.75;7.47;;;11.00;90.60;;;;;;5089109;28;20020;-44
2021/03/27 02:46:29;;;;;;;14.57;7.38;;;11.00;90.70;;;;;;5070527;28;20046;-44
2021/03/27 02:48:57;;;;;;;16.98;7.88;;;10.90;90.90;;;;;;5071110;28;20031;-45
2021/03/27 02:51:27;;;;;;;13.18;8.05;;;10.90;91.00;;;;;;5089225;28;20028;-43
2021/03/27 02:54:09;;;;;;;12.35;7.22;;;10.90;91.10;;;;;;5089142;28;20028;-44
2021/03/27 02:56:55;;;;;;;14.27;7.97;;;10.90;91.00;;;;;;5088588;28;20178;-44
2021/03/27 02:59:45;;;;;;;12.13;6.95;;;10.90;91.20;;;;;;5088820;28;20031;-44
2021/03/27 03:02:34;;;;;;;12.65;7.18;;;10.80;91.30;;;;;;5089050;28;20020;-44
2021/03/27 03:05:31;;;;;;;12.23;6.68;;;10.70;91.40;;;;;;5086990;28;20047;-44
2021/03/27 03:08:17;;;;;;;17.23;7.00;;;10.70;91.30;;;;;;5088757;28;20024;-43
2021/03/27 03:10:53;;;;;;;12.07;6.85;;;10.70;91.40;;;;;;5089060;28;20056;-43
2021/03/27 03:13:21;;;;;;;12.75;6.55;;;10.60;91.30;;;;;;5088915;28;20039;-46
2021/03/27 03:16:09;;;;;;;12.95;6.53;;;10.70;91.10;;;;;;5086300;28;20030;-44
2021/03/27 03:18:51;;;;;;;9.88;5.95;;;10.70;91.10;;;;;;5088002;28;20099;-43
2021/03/27 03:21:35;;;;;;;11.30;6.13;;;10.60;91.20;;;;;;5088238;28;20016;-43
2021/03/27 03:24:32;;;;;;;10.88;5.93;;;10.60;91.20;;;;;;5088736;28;20443;-44
2021/03/27 03:27:41;;;;;;;10.90;6.78;;;10.50;91.50;;;;;;5088068;28;20032;-44
2021/03/27 03:30:25;;;;;;;9.90;6.68;;;10.50;91.80;;;;;;5076530;28;20036;-45
2021/03/27 03:33:15;;;;;;;11.02;6.03;;;10.50;92.00;;;;;;5088580;28;20052;-43
2021/03/27 03:35:49;;;;;;;9.52;6.20;;;10.50;92.00;;;;;;5087907;28;20024;-43
2021/03/27 03:38:51;;;;;;;12.60;6.20;;;10.50;92.00;;;;;;5088408;28;20020;-44
2021/03/27 03:41:47;;;;;;;10.10;6.38;;;10.50;91.90;;;;;;5088443;28;20020;-44
2021/03/27 03:44:26;;;;;;;12.80;6.70;;;10.50;92.10;;;;;;5088219;28;20024;-44
2021/03/27 03:46:54;;;;;;;10.50;6.25;;;10.50;92.40;;;;;;5087814;28;20175;-44
2021/03/27 03:50:09;;;;;;;10.13;6.22;;;10.40;92.20;;;;;;5088289;28;20590;-44
2021/03/27 03:53:00;;;;;;;10.15;6.20;;;10.40;92.50;;;;;;5088436;28;20013;-44
2021/03/27 03:55:59;;;;;;;9.60;6.10;;;10.40;94.20;;;;;;5087732;28;20020;-44
2021/03/27 03:58:32;;;;;;;11.65;6.07;;;10.30;96.90;;;;;;5070225;28;20017;-45
2021/03/27 04:01:25;;;;;;;10.13;5.60;;;10.20;98.30;;;;;;5088331;28;20401;-45
2021/03/27 04:04:07;;;;;;;11.85;6.68;;;10.10;99.90;;;;;;5088466;28;20016;-45
2021/03/27 04:06:38;;;;;;;14.52;5.80;;;10.00;99.90;;;;;;5087844;28;20100;-44
2021/03/27 04:09:09;;;;;;;10.40;5.60;;;10.00;99.90;;;;;;5088985;28;20236;-44
2021/03/27 04:11:45;;;;;;;9.90;6.07;;;10.00;99.90;;;;;;5088352;28;20051;-44
2021/03/27 04:14:39;;;;;;;9.88;5.20;;;10.00;99.90;;;;;;5087805;28;20016;-45
2021/03/27 04:17:32;;;;;;;9.07;5.70;;;10.10;99.80;;;;;;5087835;28;20107;-45
2021/03/27 04:20:20;;;;;;;6.95;5.43;;;10.10;99.90;;;;;;5088060;28;20028;-44
2021/03/27 04:22:56;;;;;;;7.97;5.55;;;10.10;99.90;;;;;;5088003;28;20107;-44
2021/03/27 04:25:40;;;;;;;8.15;5.35;;;10.10;99.90;;;;;;5087517;28;20027;-45
2021/03/27 04:28:14;;;;;;;11.35;5.78;;;10.10;99.90;;;;;;5089163;28;20034;-44
2021/03/27 04:31:08;;;;;;;10.23;5.30;;;10.20;99.90;;;;;;5090081;28;20070;-44
2021/03/27 04:34:03;;;;;;;7.13;5.15;;;10.20;99.90;;;;;;5091589;28;20107;-44
2021/03/27 04:36:44;;;;;;;8.75;5.15;;;10.20;99.90;;;;;;5091145;28;20057;-44
2021/03/27 04:39:27;;;;;;;8.55;5.25;;;10.30;99.90;;;;;;5091508;28;20377;-45
2021/03/27 04:42:28;;;;;;;10.88;5.50;;;10.30;99.90;;;;;;5092102;28;20477;-44
2021/03/27 04:45:06;;;;;;;;;;;10.40;99.90;;;;;;5073256;28;20646;-44
2021/03/27 04:47:58;;;;;;;10.93;6.43;;;10.50;99.90;;;;;;5090259;28;19908;-44
2021/03/27 04:50:45;;;;;;;13.05;7.10;;;10.40;99.90;;;;;;5086482;28;20085;-47
2021/03/27 04:53:25;;;;;;;11.55;6.95;;;10.40;99.90;;;;;;5083010;28;20496;-46
2021/03/27 04:56:03;;;;;;;12.02;6.78;;;10.30;99.90;;;;;;5083303;28;20038;-46
2021/03/27 04:58:49;;;;;;;13.38;7.25;;;10.30;99.90;;;;;;5091519;28;20032;-44
2021/03/27 05:01:18;;;;;;;11.02;7.18;;;10.30;99.90;;;;;;5091409;28;20028;-44
2021/03/27 05:04:02;;;;;;;14.32;6.35;;;10.20;99.90;;;;;;5090017;28;20377;-45
2021/03/27 05:06:38;;;;;;;9.95;5.03;;;9.70;99.90;;;;;;5090654;28;20032;-44
2021/03/27 05:09:22;;;;;;;5.05;3.58;;;9.40;99.90;;;;;;5091162;28;20113;-43
2021/03/27 05:12:10;;;;;;;3.25;2.33;;;9.00;99.90;;;;;;5091065;28;20423;-44
2021/03/27 05:15:03;;;;;;;2.53;2.25;;;8.60;99.90;;;;;;5090560;28;20039;-43
2021/03/27 05:17:57;;;;;;;3.22;2.40;;;8.30;99.90;;;;;;5090907;28;20531;-45
2021/03/27 05:20:27;;;;;;;2.25;1.65;;;7.90;99.90;;;;;;5090914;28;20063;-45
2021/03/27 05:23:13;;;;;;;2.33;1.90;;;7.70;99.90;;;;;;5091028;28;20110;-44
2021/03/27 05:25:51;;;;;;;1.80;1.70;;;7.50;99.90;;;;;;5090318;28;20067;-43
2021/03/27 05:28:31;;;;;;;1.70;1.40;;;7.40;99.90;;;;;;5091000;28;20028;-43
2021/03/27 05:31:22;;;;;;;2.50;1.98;;;7.30;99.90;;;;;;5090306;28;20527;-43
2021/03/27 05:34:15;;;;;;;2.50;1.80;;;7.20;99.90;;;;;;5090566;28;20075;-43
2021/03/27 05:36:56;;;;;;;3.83;1.95;;;7.20;99.90;;;;;;5089965;28;20028;-43
2021/03/27 05:39:53;;;;;;;4.22;2.90;;;7.10;99.90;;;;;;5090435;28;20031;-43
2021/03/27 05:43:04;;;;;;;3.28;2.10;;;7.10;99.90;;;;;;4999778;28;20050;-43
2021/03/27 05:45:45;;;;;;;;;;;7.10;99.90;;;;;;5090019;28;20024;-43
2021/03/27 05:48:46;;;;;;;3.45;2.47;;;7.10;99.90;;;;;;5090646;28;19904;-45
2021/03/27 05:51:34;;;;;;;2.30;1.98;;;7.10;99.90;;;;;;5090205;28;20052;-43
2021/03/27 05:54:04;;;;;;;2.35;1.92;;;7.00;99.90;;;;;;5090172;28;20027;-43
2021/03/27 05:56:48;;;;;;;;;;;7.00;99.90;;;;;;5090241;28;20027;-44
2021/03/27 05:59:39;;;;;;;2.78;2.22;;;7.00;99.90;;;;;;5089915;28;19903;-43
2021/03/27 06:02:25;;;;;;;4.90;2.75;;;7.10;99.90;;;;;;5090230;28;20051;-43
2021/03/27 06:05:12;;;;;;;3.85;2.25;;;6.90;99.90;;;;;;5089496;28;20028;-43
2021/03/27 06:08:15;;;;;;;5.03;2.35;;;6.90;99.90;;;;;;5090135;28;20389;-43
2021/03/27 06:11:07;;;;;;;4.18;2.40;;;6.90;99.90;;;;;;5090065;28;20028;-43
2021/03/27 06:14:03;;;;;;;3.08;2.22;;;6.90;99.90;;;;;;5089751;28;20036;-43
2021/03/27 06:17:14;;;;;;;4.95;2.63;;;7.00;99.90;;;;;;5089143;28;20469;-43
2021/03/27 06:20:10;;;;;;;3.30;2.47;;;6.90;99.90;;;;;;5090012;28;20057;-44
2021/03/27 06:23:14;;;;;;;3.47;2.47;;;6.90;99.90;;;;;;5088892;28;20020;-43
2021/03/27 06:26:23;;;;;;;4.78;3.45;;;6.90;99.90;;;;;;5087682;28;20085;-44
2021/03/27 06:29:22;;;;;;;5.32;3.85;;;6.90;99.90;;;;;;5089755;28;20101;-43
2021/03/27 06:32:26;;;;;;;6.47;4.10;;;6.90;99.90;;;;;;5088982;28;20036;-44
2021/03/27 06:34:53;;;;;;;11.43;4.68;;;6.90;99.90;;;;;;5087550;28;20047;-44
2021/03/27 06:37:49;;;;;;;6.53;3.75;;;6.80;99.90;;;;;;5089425;28;20020;-45
2021/03/27 06:40:34;;;;;;;5.95;3.95;;;6.80;99.90;;;;;;5089241;28;20055;-45
2021/03/27 06:43:27;;;;;;;6.82;3.97;;;6.90;99.90;;;;;;5089204;28;20031;-45
2021/03/27 06:46:21;;;;;;;5.72;4.45;;;6.80;99.90;;;;;;5088439;28;20024;-45
2021/03/27 06:49:25;;;;;;;6.70;4.53;;;6.90;99.90;;;;;;5088803;28;20031;-45
2021/03/27 06:52:33;;;;;;;7.97;4.50;;;6.80;99.90;;;;;;5087394;28;20024;-45
2021/03/27 06:55:32;;;;;;;8.00;5.40;;;6.80;99.90;;;;;;5035585;28;20036;-44
2021/03/27 06:58:35;;;;;;;6.72;4.82;;;6.70;99.90;;;;;;5089033;28;20028;-44
2021/03/27 07:01:44;;;;;;;7.22;5.25;;;6.70;99.90;;;;;;5088803;28;20020;-45
2021/03/27 07:04:36;;;;;;;8.80;5.35;;;6.70;99.90;;;;;;5088933;28;20016;-45
2021/03/27 07:07:26;;;;;;;9.13;5.05;;;6.60;99.90;;;;;;5088238;28;20020;-45
2021/03/27 07:10:29;;;;;;;6.68;4.43;;;6.70;99.90;;;;;;5088819;28;20142;-45
2021/03/27 07:13:01;;;;;;;7.03;4.63;;;6.60;99.90;;;;;;5088849;28;20099;-45
2021/03/27 07:15:48;;;;;;;10.93;5.70;;;6.70;99.90;;;;;;5087739;28;20226;-45
2021/03/27 07:18:31;;;;;;;6.35;4.75;;;6.70;99.90;;;;;;5087583;28;20023;-43
2021/03/27 07:21:35;;;;;;;9.73;5.30;;;6.80;99.90;;;;;;5088120;28;20065;-44
2021/03/27 07:24:38;;;;;;;6.72;4.75;;;6.90;99.90;;;;;;5088505;28;20027;-44
2021/03/27 07:27:34;;;;;;;8.23;5.13;;;7.00;99.90;;;;;;5088128;28;20043;-43
2021/03/27 07:30:44;;;;;;;7.65;5.43;;;7.00;99.90;;;;;;5088231;28;20028;-45
2021/03/27 07:33:24;;;;;;;8.25;5.55;;;7.10;99.90;;;;;;5054684;28;20071;-43
2021/03/27 07:36:27;;;;;;;7.53;5.73;;;7.20;99.90;;;;;;5087891;28;20020;-43
2021/03/27 07:39:02;;;;;;;9.02;6.38;;;7.20;99.90;;;;;;5082992;28;20810;-44
2021/03/27 07:41:50;;;;;;;9.57;6.57;;;7.30;99.90;;;;;;5086492;28;20032;-45
2021/03/27 07:44:59;;;;;;;11.23;6.72;;;7.50;99.90;;;;;;5076037;28;20012;-44
2021/03/27 07:47:54;;;;;;;9.13;5.70;;;7.60;99.90;;;;;;5087127;28;20035;-43
2021/03/27 07:50:40;;;;;;;9.90;6.60;;;7.70;99.90;;;;;;5057579;28;20029;-46
2021/03/27 07:53:25;;;;;;;9.23;6.10;;;7.80;99.90;;;;;;5085008;28;20094;-43
2021/03/27 07:56:20;;;;;;;11.05;6.68;;;7.80;99.90;;;;;;5081196;28;20035;-43
2021/03/27 07:59:07;;;;;;;6.63;4.85;;;7.80;99.90;;;;;;5075038;28;20077;-44
2021/03/27 08:01:54;;;;;;;8.07;5.82;;;8.00;99.90;;;;;;5083558;28;20028;-43
2021/03/27 08:04:51;;;;;;;9.43;6.05;;;8.20;99.90;;;;;;5091357;28;20095;-44
2021/03/27 08:07:23;;;;;;;14.02;5.43;;;8.20;99.90;;;;;;5084007;28;20465;-44
2021/03/27 08:10:13;;;;;;;13.05;4.57;;;8.10;99.90;;;;;;5091815;28;20032;-47
2021/03/27 08:13:21;;;;;;;9.55;4.60;;;8.10;99.90;;;;;;5091871;28;20024;-45
2021/03/27 08:16:02;;;;;;;10.63;5.05;;;8.00;99.90;;;;;;5090823;28;20028;-45
2021/03/27 08:18:37;;;;;;;11.90;4.97;;;8.00;99.90;;;;;;5091899;28;20030;-43
2021/03/27 08:21:31;;;;;;;7.15;4.57;;;8.20;99.90;;;;;;5087825;28;20081;-44
2021/03/27 08:24:08;;;;;;;8.82;4.43;;;8.70;99.90;;;;;;5091998;28;20024;-44
2021/03/27 08:27:21;;;;;;;10.90;3.95;;;8.90;99.90;;;;;;5090983;28;20443;-44
2021/03/27 08:29:58;;;;;;;13.30;4.57;;;9.00;99.90;;;;;;5043829;28;20040;-45
2021/03/27 08:32:38;;;;;;;9.38;3.80;;;9.90;99.90;;;;;;5091651;28;20209;-44
2021/03/27 08:35:04;;;;;;;10.38;3.72;;;11.20;99.90;;;;;;5072619;28;20389;-45
2021/03/27 08:38:02;;;;;;;4.95;3.00;;;13.00;93.30;;;;;;5091301;28;20028;-45
2021/03/27 08:41:11;;;;;;;6.30;3.55;;;14.50;84.90;;;;;;5091162;28;20032;-46
2021/03/27 08:44:00;;;;;;;6.70;3.28;;;14.90;76.50;;;;;;5091549;28;20021;-46
2021/03/27 08:46:42;;;;;;;9.80;3.80;;;15.20;72.10;;;;;;5089020;28;20024;-47
2021/03/27 08:49:35;;;;;;;7.30;3.50;;;14.70;69.40;;;;;;5083626;28;20389;-46
2021/03/27 08:52:42;;;;;;;5.88;3.30;;;14.90;68.30;;;;;;5091143;28;20027;-44
2021/03/27 08:55:39;;;;;;;8.35;4.28;;;14.20;70.40;;;;;;5089941;28;20120;-45
2021/03/27 08:58:30;;;;;;;7.13;4.15;;;13.10;73.60;;;;;;5091165;28;20054;-45
2021/03/27 09:00:55;;;;;;;;;;;12.90;75.30;;;;;;5091241;28;20048;-44
2021/03/27 09:03:29;;;;;;;11.95;5.40;;;12.60;76.90;;;;;;5091064;28;20401;-45
2021/03/27 09:06:19;;;;;;;8.32;4.90;;;13.60;73.70;;;;;;5090046;28;20028;-46
2021/03/27 09:09:18;;;;;;;11.30;6.35;;;13.70;69.90;;;;;;5090575;28;20073;-45
2021/03/27 09:12:22;;;;;;;10.57;6.25;;;13.60;70.40;;;;;;5090622;28;20069;-44
2021/03/27 09:15:02;;;;;;;8.82;5.85;;;13.00;73.50;;;;;;5057227;28;20591;-45
2021/03/27 09:17:38;;;;;;;8.70;6.50;;;13.10;72.00;;;;;;5067264;28;20029;-45
2021/03/27 09:20:12;;;;;;;10.40;7.10;;;12.50;75.20;;;;;;5081187;28;20032;-46
2021/03/27 09:22:41;;;;;;;11.07;6.82;;;12.30;79.10;;;;;;5089997;28;20021;-45
2021/03/27 09:25:30;;;;;;;14.82;7.22;;;11.60;79.80;;;;;;5081035;28;20025;-44
2021/03/27 09:28:36;;;;;;;11.27;7.72;;;11.30;83.70;;;;;;5065932;28;20473;-45
2021/03/27 09:31:24;;;;;;;12.95;7.32;;;11.00;85.20;;;;;;5071902;28;20044;-45
2021/03/27 09:34:02;;;;;;;15.25;7.53;;;10.70;91.10;;;;;;5087342;28;20036;-43
2021/03/27 09:36:49;;;;;;;13.10;7.53;;;10.50;90.00;;;;;;5086640;28;20132;-43
2021/03/27 09:39:22;;;;;;;12.10;7.20;;;10.20;92.20;;;;;;5087501;28;20028;-44
2021/03/27 09:42:12;;;;;;;14.38;7.53;;;9.80;92.60;;;;;;5083317;28;20032;-43
2021/03/27 09:45:03;;;;;;;11.48;7.55;;;10.00;92.80;;;;;;5079566;28;20028;-43
2021/03/27 09:47:55;;;;;;;20.73;7.72;;;10.00;93.00;;;;;;5087542;28;20455;-43
2021/03/27 09:50:34;;;;;;;11.95;6.97;;;10.20;91.80;;;;;;5071492;28;20487;-45
2021/03/27 09:53:24;;;;;;;11.57;7.22;;;10.10;92.00;;;;;;5087741;28;20042;-44
2021/03/27 09:55:59;;;;;;;11.48;7.38;;;10.00;92.60;;;;;;5090451;28;20031;-46
2021/03/27 09:59:02;;;;;;;14.88;7.40;;;10.00;93.20;;;;;;5087351;28;20032;-44
2021/03/27 10:01:40;;;;;;;17.88;7.47;;;9.70;94.80;;;;;;5086397;28;20020;-44
2021/03/27 10:04:17;;;;;;;16.92;8.18;;;9.60;96.20;;;;;;5081089;28;20043;-44
2021/03/27 10:07:19;;;;;;;15.27;9.30;;;9.70;98.00;;;;;;5086646;28;20460;-44
2021/03/27 10:09:52;;;;;;;7.82;4.88;;;9.60;99.90;;;;;;5098100;28;20050;-44
2021/03/27 10:12:48;;;;;;;12.35;5.00;;;9.10;99.90;;;;;;5107728;28;20028;-45
2021/03/27 10:15:22;;;;;;;13.35;5.53;;;8.40;99.90;;;;;;5106680;28;20031;-46
2021/03/27 10:18:00;;;;;;;14.43;6.93;;;8.10;99.90;;;;;;5107926;28;20020;-44
2021/03/27 10:20:45;;;;;;;12.35;7.53;;;7.80;99.90;;;;;;5107575;28;20123;-44
2021/03/27 10:23:37;;;;;;;11.68;6.78;;;7.80;99.90;;;;;;5107636;28;20428;-45
2021/03/27 10:26:29;;;;;;;12.68;7.22;;;7.90;99.90;;;;;;5084346;28;20478;-44
2021/03/27 10:29:34;;;;;;;6.97;3.40;;;8.00;99.90;;;;;;5080607;28;20036;-45
2021/03/27 10:32:16;;;;;;;8.45;3.53;;;8.20;99.90;;;;;;5084409;28;20059;-45
2021/03/27 10:34:53;;;;;;;7.90;3.90;;;8.20;99.90;;;;;;5072312;28;20071;-45
2021/03/27 10:37:42;;;;;;;7.88;3.67;;;8.00;99.90;;;;;;5089042;28;20043;-45
2021/03/27 10:40:30;;;;;;;5.82;3.10;;;8.40;99.90;;;;;;5068979;28;20086;-45
2021/03/27 10:43:26;;;;;;;6.50;4.18;;;8.90;99.90;;;;;;5069529;28;20500;-44
2021/03/27 10:46:23;;;;;;;8.65;3.45;;;9.40;99.90;;;;;;5086541;28;20153;-45
2021/03/27 10:49:09;;;;;;;8.57;3.33;;;10.20;99.90;;;;;;5087154;28;20112;-45
2021/03/27 10:51:44;;;;;;;7.35;3.38;;;11.20;99.90;;;;;;5087220;28;20567;-45
2021/03/27 10:54:37;;;;;;;6.45;3.28;;;11.80;97.50;;;;;;5087107;28;20036;-45
2021/03/27 10:57:17;;;;;;;2.72;1.30;;;11.00;96.10;;;;;;5068015;28;20032;-44
2021/03/27 11:00:12;;;;;;;1.83;1.10;;;9.20;99.90;;;;;;5087041;28;20031;-43
2021/03/27 11:03:13;;;;;;;3.15;1.40;;;8.00;99.90;;;;;;5086896;28;20497;-48
2021/03/27 11:05:39;;;;;;;;;;;7.40;99.90;;;;;;5086653;28;20119;-45
2021/03/27 11:08:28;;;;;;;4.50;1.85;;;7.00;99.90;;;;;;5086752;28;20267;-44
2021/03/27 11:11:26;;;;;;;3.83;2.13;;;6.50;99.90;;;;;;5086762;28;20089;-46
2021/03/27 11:13:54;;;;;;;5.45;1.63;;;6.10;99.90;;;;;;5086638;28;20024;-45
2021/03/27 11:16:32;;;;;;;2.60;2.28;;;5.90;99.90;;;;;;5085988;28;20032;-45
2021/03/27 11:19:19;;;;;;;2.75;1.83;;;5.60;99.90;;;;;;5079184;28;20245;-44
2021/03/27 11:22:02;;;;;;;3.88;2.38;;;5.50;99.90;;;;;;5084489;28;20597;-44
2021/03/27 11:24:41;;;;;;;4.82;2.10;;;5.40;99.90;;;;;;5086630;28;20020;-44
2021/03/27 11:27:27;;;;;;;5.10;2.10;;;5.30;99.90;;;;;;5088967;28;20012;-44
2021/03/27 11:30:08;;;;;;;3.67;2.30;;;5.40;99.90;;;;;;5085176;28;20432;-46
2021/03/27 11:32:46;;;;;;;5.03;1.75;;;5.50;99.90;;;;;;5073728;28;20490;-44
2021/03/27 11:35:24;;;;;;;3.40;2.20;;;5.70;99.90;;;;;;5073996;28;20062;-47
2021/03/27 11:37:59;;;;;;;4.53;1.92;;;5.90;99.90;;;;;;5090212;28;20393;-45
2021/03/27 11:40:31;;;;;;;3.50;2.10;;;6.00;99.90;;;;;;5074564;28;20031;-44
2021/03/27 11:43:21;;;;;;;9.82;2.28;;;6.20;99.90;;;;;;5104068;28;20031;-44
2021/03/27 11:45:50;;;;;;;6.30;2.50;;;6.50;99.90;;;;;;5112495;28;20056;-45
2021/03/27 11:48:21;;;;;;;7.30;2.92;;;7.00;99.90;;;;;;5113816;28;20104;-46
2021/03/27 11:51:00;;;;;;;9.30;2.83;;;7.70;99.90;;;;;;5094134;28;20024;-45
2021/03/27 11:53:53;;;;;;;4.28;2.55;;;8.00;99.90;;;;;;5092910;28;20154;-45
2021/03/27 11:56:50;;;;;;;5.88;2.33;;;8.10;99.90;;;;;;5092085;28;20252;-44
2021/03/27 12:02:40;;;;;;;7.35;2.47;;;8.50;99.90;;;;;;5092461;28;20177;-44
2021/03/27 12:05:20;;;;;;;6.72;2.53;;;9.00;99.90;;;;;;5090881;28;20028;-46
2021/03/27 12:07:58;;;;;;;7.25;2.80;;;8.70;99.90;;;;;;5092966;28;20620;-44
2021/03/27 12:11:01;;;;;;;10.50;2.72;;;8.60;99.90;;;;;;5092767;28;20186;-46
2021/03/27 12:13:35;;;;;;;5.03;2.60;;;8.50;99.90;;;;;;5092353;28;20035;-47
2021/03/27 12:16:23;;;;;;;8.40;2.63;;;8.70;99.90;;;;;;5091318;28;20024;-47
2021/03/27 12:19:02;;;;;;;12.13;2.50;;;8.90;99.90;;;;;;5092677;28;20024;-45
2021/03/27 12:21:32;;;;;;;3.30;1.88;;;9.30;99.90;;;;;;5073057;28;20024;-46
2021/03/27 12:24:21;;;;;;;9.57;2.80;;;9.30;99.90;;;;;;5092401;28;20020;-48
2021/03/27 12:27:18;;;;;;;6.65;2.30;;;9.20;99.90;;;;;;5097368;28;20076;-45
2021/03/27 12:29:53;;;;;;;6.07;2.05;;;9.10;99.90;;;;;;5099522;28;20056;-46
2021/03/27 12:32:34;;;;;;;7.57;3.13;;;9.20;99.90;;;;;;5100666;28;20344;-44
2021/03/27 12:35:00;;;;;;;;;;;9.00;99.90;;;;;;5092004;28;20034;-45
2021/03/27 12:37:37;;;;;;;11.75;3.17;;;9.20;99.90;;;;;;5100468;28;19907;-44
2021/03/27 12:40:19;;;;;;;11.88;3.22;;;9.60;99.90;;;;;;5082082;28;20024;-45
2021/03/27 12:42:49;;;;;;;9.05;2.72;;;9.70;99.90;;;;;;5100796;28;20020;-44
2021/03/27 12:45:24;;;;;;;;;;;10.00;99.90;;;;;;5101381;28;20072;-45
2021/03/27 12:48:22;;;;;;;9.73;3.60;;;10.00;99.90;;;;;;5098395;28;20326;-45
2021/03/27 12:51:11;;;;;;;8.57;2.63;;;10.10;99.90;;;;;;5090163;28;20697;-45
2021/03/27 12:54:04;;;;;;;6.97;2.58;;;10.60;99.90;;;;;;5097542;28;20102;-45
2021/03/27 12:56:50;;;;;;;10.80;2.55;;;10.90;99.90;;;;;;5094514;28;20107;-44
2021/03/27 12:59:38;;;;;;;5.18;2.42;;;11.10;98.00;;;;;;5098176;28;20016;-45
2021/03/27 13:02:39;;;;;;;9.60;2.97;;;11.00;96.20;;;;;;5080283;28;20137;-45
2021/03/27 13:05:17;;;;;;;5.38;2.10;;;10.80;96.60;;;;;;5098329;28;20034;-45
2021/03/27 13:07:52;;;;;;;7.95;3.03;;;11.20;95.30;;;;;;5099623;28;20072;-45
2021/03/27 13:10:51;;;;;;;7.25;2.85;;;11.90;93.30;;;;;;5098601;28;20032;-45
2021/03/27 13:13:23;;;;;;;4.80;2.53;;;11.60;90.40;;;;;;5092053;28;20030;-45
2021/03/27 13:16:11;;;;;;;11.85;3.08;;;11.70;86.20;;;;;;5095738;28;20035;-47
2021/03/27 13:18:56;;;;;;;9.57;3.03;;;11.70;85.00;;;;;;5101860;28;20049;-45
2021/03/27 13:21:40;;;;;;;8.50;2.72;;;11.20;88.10;;;;;;5100538;28;20031;-48
2021/03/27 13:24:18;;;;;;;5.25;2.78;;;11.00;86.20;;;;;;5099203;28;20016;-48
2021/03/27 13:26:45;;;;;;;9.13;3.00;;;10.70;87.60;;;;;;5098277;28;20027;-45
2021/03/27 13:29:32;;;;;;;8.48;2.58;;;10.80;87.40;;;;;;5097551;28;20081;-46
2021/03/27 13:32:08;;;;;;;7.43;2.40;;;10.30;82.50;;;;;;5095318;28;20024;-45
2021/03/27 13:34:40;;;;;;;5.47;2.67;;;10.20;86.10;;;;;;5093130;28;20084;-46
2021/03/27 13:37:23;;;;;;;3.50;1.80;;;9.80;87.10;;;;;;5094211;28;20228;-46
2021/03/27 13:39:59;;;;;;;2.35;1.67;;;9.40;94.60;;;;;;5078121;28;20493;-46
2021/03/27 13:42:38;;;;;;;3.72;1.42;;;8.60;99.90;;;;;;5099278;28;20369;-46
2021/03/27 13:45:25;;;;;;;5.30;1.67;;;7.60;99.90;;;;;;5080136;28;20034;-48
2021/03/27 13:48:21;;;;;;;4.32;1.58;;;6.80;99.90;;;;;;5088606;28;20034;-45
2021/03/27 13:51:09;;;;;;;3.30;1.30;;;6.30;99.90;;;;;;5086218;28;20020;-46
2021/03/27 13:53:54;;;;;;;4.60;1.27;;;5.90;99.90;;;;;;5087261;28;20282;-44
2021/03/27 13:56:38;;;;;;;2.20;1.55;;;5.50;99.90;;;;;;5084399;28;20020;-46
2021/03/27 13:59:18;;;;;;;7.63;2.22;;;5.10;99.90;;;;;;5086799;28;20024;-43
2021/03/27 14:02:07;;;;;;;5.88;2.03;;;5.00;99.90;;;;;;5085247;28;20020;-46
2021/03/27 14:04:46;;;;;;;5.88;2.50;;;4.70;99.90;;;;;;5086371;28;20108;-46
2021/03/27 14:07:30;;;;;;;3.97;1.75;;;4.70;99.90;;;;;;5068512;28;20523;-48
2021/03/27 14:10:06;;;;;;;4.55;2.40;;;4.70;99.90;;;;;;5085753;28;20017;-46
2021/03/27 14:12:37;;;;;;;3.42;1.75;;;4.90;99.90;;;;;;5084179;28;20103;-45
2021/03/27 14:15:03;;;;;;;4.50;1.40;;;5.20;99.90;;;;;;5083494;28;20042;-45
2021/03/27 14:18:19;;;;;;;8.13;1.70;;;5.20;99.90;;;;;;5086131;28;20500;-46
2021/03/27 14:21:02;;;;;;;3.95;1.42;;;5.40;99.90;;;;;;4987662;28;20352;-45
2021/03/27 14:23:49;;;;;;;5.82;1.77;;;5.30;99.90;;;;;;4999713;28;20022;-45